Time;durP1;ratioP1;P1;durP2;ratioP2;P2;SDS_P1;SDS_P2;PMS_P1;PMS_P2;Temp;Humidity;BMP_temperature;BMP_pressure;BME280_temperature;BME280_humidity;BME280_pressure;Samples;Min_cycle;Max_cycle;Signal;HPM_P1;HPM_P2
2022/10/06 00:02:21;;;;;;;2.45;1.00;;;;;;;;;;5054361;28;20041;-80
2022/10/06 00:04:46;;;;;;;2.90;0.98;;;;;;;;;;5054119;28;20083;-80
2022/10/06 00:07:13;;;;;;;1.80;1.00;;;;;;;;;;5037581;28;20031;-80
2022/10/06 00:09:38;;;;;;;1.60;1.17;;;;;;;;;;5054292;28;20036;-80
2022/10/06 00:12:04;;;;;;;4.00;1.13;;;;;;;;;;5055382;28;20028;-79
2022/10/06 00:14:30;;;;;;;1.30;0.85;;;;;;;;;;5054594;28;20033;-80
2022/10/06 00:16:55;;;;;;;3.13;0.88;;;;;;;;;;5055326;28;20040;-80
2022/10/06 00:19:20;;;;;;;2.20;0.98;;;;;;;;;;5070739;28;20510;-80
2022/10/06 00:21:46;;;;;;;3.42;1.08;;;;;;;;;;5055667;28;20055;-80
2022/10/06 00:24:11;;;;;;;6.25;1.60;;;;;;;;;;5055104;28;20039;-79
2022/10/06 00:26:36;;;;;;;3.08;1.10;;;;;;;;;;5055396;28;20055;-80
2022/10/06 00:29:02;;;;;;;2.47;1.08;;;;;;;;;;5053990;28;20432;-80
2022/10/06 00:31:28;;;;;;;3.08;1.05;;;;;;;;;;5055314;28;20033;-80
2022/10/06 00:33:53;;;;;;;3.03;1.10;;;;;;;;;;5054082;28;20534;-79
2022/10/06 00:36:20;;;;;;;3.05;1.00;;;;;;;;;;5053965;28;20025;-80
2022/10/06 00:38:45;;;;;;;3.95;1.20;;;;;;;;;;5055230;28;20108;-79
2022/10/06 00:41:16;;;;;;;4.25;1.55;;;;;;;;;;5053470;28;20112;-80
2022/10/06 00:43:43;;;;;;;3.42;1.10;;;;;;;;;;5053495;28;20470;-80
2022/10/06 00:46:27;;;;;;;2.35;1.15;;;;;;;;;;5054741;28;20032;-79
2022/10/06 00:48:58;;;;;;;4.05;1.30;;;;;;;;;;5053757;28;20021;-79
2022/10/06 00:51:26;;;;;;;4.68;1.38;;;;;;;;;;5053562;28;20037;-79
2022/10/06 00:53:51;;;;;;;3.30;1.10;;;;;;;;;;5052292;28;20466;-80
2022/10/06 00:56:17;;;;;;;4.82;1.00;;;;;;;;;;5053688;28;20065;-79
2022/10/06 00:58:42;;;;;;;3.92;1.05;;;;;;;;;;5053268;28;20123;-80
2022/10/06 01:01:08;;;;;;;3.05;1.27;;;;;;;;;;5053769;28;20040;-80
2022/10/06 01:03:36;;;;;;;2.92;1.17;;;;;;;;;;5053777;28;20036;-80
2022/10/06 01:06:02;;;;;;;3.65;1.02;;;;;;;;;;5053101;28;20082;-80
2022/10/06 01:08:28;;;;;;;2.40;1.00;;;;;;;;;;5053679;28;20116;-80
2022/10/06 01:10:54;;;;;;;4.72;1.10;;;;;;;;;;5053092;28;20042;-80
2022/10/06 01:13:19;;;;;;;4.15;1.42;;;;;;;;;;5054570;28;20033;-80
2022/10/06 01:15:58;;;;;;;6.28;1.20;;;;;;;;;;5053282;28;20098;-80
2022/10/06 01:18:26;;;;;;;5.72;1.40;;;;;;;;;;5052929;28;20024;-80
2022/10/06 01:20:58;;;;;;;5.63;1.25;;;;;;;;;;5036400;28;20041;-81
2022/10/06 01:23:23;;;;;;;4.75;1.42;;;;;;;;;;5053233;28;20485;-80
2022/10/06 01:25:49;;;;;;;5.72;1.50;;;;;;;;;;5036028;28;20056;-81
2022/10/06 01:28:14;;;;;;;6.60;1.00;;;;;;;;;;5052924;28;20060;-81
2022/10/06 01:30:51;;;;;;;5.70;1.50;;;;;;;;;;5052771;28;20040;-80
2022/10/06 01:33:18;;;;;;;5.18;1.50;;;;;;;;;;5052984;28;20103;-79
2022/10/06 01:35:48;;;;;;;7.50;1.60;;;;;;;;;;5052874;28;20119;-81
2022/10/06 01:38:13;;;;;;;4.93;1.35;;;;;;;;;;5054019;28;20382;-80
2022/10/06 01:40:39;;;;;;;4.63;1.30;;;;;;;;;;5053597;28;20100;-80
2022/10/06 01:43:04;;;;;;;4.60;1.40;;;;;;;;;;5053949;28;20479;-80
2022/10/06 01:45:29;;;;;;;3.65;1.40;;;;;;;;;;5053537;28;20407;-80
2022/10/06 01:47:55;;;;;;;4.60;1.33;;;;;;;;;;5052258;28;20369;-80
2022/10/06 01:50:20;;;;;;;7.35;1.75;;;;;;;;;;5052499;28;20043;-80
2022/10/06 01:52:45;;;;;;;6.53;1.48;;;;;;;;;;5052590;28;20039;-80
2022/10/06 01:55:11;;;;;;;2.90;1.20;;;;;;;;;;5054011;28;20467;-80
2022/10/06 01:57:38;;;;;;;4.55;1.52;;;;;;;;;;5052500;28;20052;-80
2022/10/06 02:00:04;;;;;;;4.85;1.40;;;;;;;;;;5035567;28;20036;-80
2022/10/06 02:02:30;;;;;;;5.43;1.48;;;;;;;;;;5053327;28;20033;-81
2022/10/06 02:04:55;;;;;;;5.68;1.63;;;;;;;;;;5052172;28;20029;-80
2022/10/06 02:07:21;;;;;;;5.57;1.55;;;;;;;;;;5035649;28;20499;-80
2022/10/06 02:09:46;;;;;;;5.15;1.60;;;;;;;;;;5053886;28;20379;-81
2022/10/06 02:12:11;;;;;;;3.63;1.35;;;;;;;;;;5053145;28;20178;-81
2022/10/06 02:14:37;;;;;;;4.15;1.50;;;;;;;;;;5053564;28;20028;-80
2022/10/06 02:17:02;;;;;;;5.22;1.40;;;;;;;;;;5052214;28;20036;-80
2022/10/06 02:19:28;;;;;;;5.78;1.58;;;;;;;;;;5052186;28;20472;-80
2022/10/06 02:21:53;;;;;;;4.80;1.40;;;;;;;;;;5053555;28;20104;-80
2022/10/06 02:24:18;;;;;;;2.80;1.20;;;;;;;;;;5051745;28;20078;-81
2022/10/06 02:26:44;;;;;;;4.45;1.52;;;;;;;;;;5035210;28;20056;-81
2022/10/06 02:29:09;;;;;;;5.72;1.40;;;;;;;;;;5018598;28;20033;-81
2022/10/06 02:31:34;;;;;;;4.72;1.40;;;;;;;;;;5053057;28;20028;-80
2022/10/06 02:34:01;;;;;;;4.07;1.50;;;;;;;;;;5052965;28;20538;-80
2022/10/06 02:36:26;;;;;;;6.18;1.45;;;;;;;;;;5053187;28;20029;-80
2022/10/06 02:38:51;;;;;;;5.40;1.48;;;;;;;;;;5051635;28;20029;-80
2022/10/06 02:41:17;;;;;;;4.60;1.55;;;;;;;;;;5053107;28;20083;-80
2022/10/06 02:43:42;;;;;;;6.22;1.73;;;;;;;;;;5051559;28;20056;-80
2022/10/06 02:46:13;;;;;;;4.95;1.45;;;;;;;;;;5053440;28;20391;-79
2022/10/06 02:48:42;;;;;;;4.15;1.40;;;;;;;;;;5035407;28;20040;-80
2022/10/06 02:51:10;;;;;;;5.22;1.35;;;;;;;;;;5053503;28;20459;-80
2022/10/06 02:53:36;;;;;;;4.95;1.60;;;;;;;;;;5052927;28;20029;-80
2022/10/06 02:56:11;;;;;;;7.80;2.20;;;;;;;;;;5053006;28;20043;-80
2022/10/06 02:58:38;;;;;;;5.13;1.50;;;;;;;;;;5051851;28;20041;-80
2022/10/06 03:01:09;;;;;;;3.92;1.50;;;;;;;;;;5034955;28;20021;-80
2022/10/06 03:03:35;;;;;;;5.85;1.40;;;;;;;;;;5052110;28;20024;-80
2022/10/06 03:06:20;;;;;;;7.93;1.67;;;;;;;;;;5052638;28;20041;-80
2022/10/06 03:08:49;;;;;;;4.70;1.20;;;;;;;;;;5051918;28;20025;-80
2022/10/06 03:11:18;;;;;;;4.47;1.20;;;;;;;;;;5051797;28;20383;-81
2022/10/06 03:13:44;;;;;;;3.80;1.48;;;;;;;;;;5052263;28;20094;-80
2022/10/06 03:16:18;;;;;;;6.20;1.33;;;;;;;;;;5035315;28;20029;-80
2022/10/06 03:18:50;;;;;;;4.82;1.45;;;;;;;;;;5038977;28;20088;-80
2022/10/06 03:21:17;;;;;;;5.28;1.70;;;;;;;;;;5040473;28;20032;-81
2022/10/06 03:23:43;;;;;;;4.05;1.30;;;;;;;;;;5057372;28;20036;-80
2022/10/06 03:26:09;;;;;;;3.25;1.30;;;;;;;;;;5056721;28;20067;-80
2022/10/06 03:28:34;;;;;;;3.85;1.13;;;;;;;;;;5058516;28;20467;-80
2022/10/06 03:31:01;;;;;;;4.75;1.40;;;;;;;;;;5054928;28;20025;-80
2022/10/06 03:33:27;;;;;;;6.18;1.50;;;;;;;;;;5055224;28;20493;-80
2022/10/06 03:36:09;;;;;;;3.78;1.25;;;;;;;;;;5054945;28;20064;-80
2022/10/06 03:38:36;;;;;;;4.00;1.40;;;;;;;;;;5056325;28;20025;-81
2022/10/06 03:41:05;;;;;;;2.78;1.10;;;;;;;;;;5054729;28;20024;-81
2022/10/06 03:43:31;;;;;;;4.53;1.38;;;;;;;;;;5055839;28;20106;-80
2022/10/06 03:45:59;;;;;;;4.53;1.35;;;;;;;;;;5038038;28;20497;-80
2022/10/06 03:48:25;;;;;;;2.55;1.20;;;;;;;;;;5056677;28;20029;-80
2022/10/06 03:51:05;;;;;;;7.25;1.50;;;;;;;;;;5038229;28;20087;-80
2022/10/06 03:53:31;;;;;;;5.97;1.60;;;;;;;;;;5055146;28;20021;-80
2022/10/06 03:56:10;;;;;;;6.53;1.20;;;;;;;;;;5056326;28;20037;-80
2022/10/06 03:58:37;;;;;;;10.30;1.25;;;;;;;;;;5054879;28;20391;-79
2022/10/06 04:01:05;;;;;;;4.65;1.30;;;;;;;;;;5054315;28;20400;-79
2022/10/06 04:03:31;;;;;;;5.38;1.55;;;;;;;;;;5054493;28;20021;-79
2022/10/06 04:05:59;;;;;;;4.35;1.00;;;;;;;;;;5021221;28;20036;-80
2022/10/06 04:08:24;;;;;;;3.75;1.20;;;;;;;;;;5054269;28;20547;-79
2022/10/06 04:10:50;;;;;;;11.70;1.73;;;;;;;;;;5054223;28;20107;-79
2022/10/06 04:13:19;;;;;;;10.77;2.05;;;;;;;;;;5054285;28;20121;-79
2022/10/06 04:15:45;;;;;;;8.30;1.60;;;;;;;;;;5054636;28;20061;-79
2022/10/06 04:18:12;;;;;;;4.53;1.50;;;;;;;;;;5054210;28;20044;-79
2022/10/06 04:20:38;;;;;;;13.13;1.75;;;;;;;;;;5054305;28;20099;-79
2022/10/06 04:23:04;;;;;;;4.97;1.55;;;;;;;;;;5055093;28;20129;-80
2022/10/06 04:25:30;;;;;;;5.85;1.55;;;;;;;;;;5053833;28;20053;-80
2022/10/06 04:27:56;;;;;;;9.75;1.88;;;;;;;;;;5053682;28;20084;-79
2022/10/06 04:30:22;;;;;;;8.65;1.70;;;;;;;;;;5054779;28;20032;-79
2022/10/06 04:32:47;;;;;;;8.50;1.98;;;;;;;;;;5054674;28;20032;-79
2022/10/06 04:35:13;;;;;;;15.07;2.63;;;;;;;;;;5054619;28;20025;-80
2022/10/06 04:37:38;;;;;;;14.75;2.83;;;;;;;;;;5055525;28;20078;-79
2022/10/06 04:40:04;;;;;;;12.07;2.50;;;;;;;;;;5053542;28;20063;-78
2022/10/06 04:42:30;;;;;;;11.65;2.70;;;;;;;;;;5054549;28;20033;-79
2022/10/06 04:44:55;;;;;;;16.63;2.60;;;;;;;;;;5054401;28;20044;-79
2022/10/06 04:47:20;;;;;;;16.30;2.42;;;;;;;;;;5053208;28;20056;-81
2022/10/06 04:49:46;;;;;;;10.93;2.45;;;;;;;;;;5053269;28;20040;-80
2022/10/06 04:52:12;;;;;;;13.68;2.58;;;;;;;;;;5053088;28;20048;-81
2022/10/06 04:54:38;;;;;;;11.85;2.65;;;;;;;;;;5053106;28;20368;-81
2022/10/06 04:57:03;;;;;;;16.08;3.05;;;;;;;;;;5053012;28;20051;-80
2022/10/06 05:02:12;;;;;;;13.40;2.65;;;;;;;;;;5054124;28;20610;-79
2022/10/06 05:04:38;;;;;;;12.10;2.40;;;;;;;;;;5053710;28;20115;-80
2022/10/06 05:07:04;;;;;;;11.82;2.55;;;;;;;;;;5052766;28;20098;-79
2022/10/06 05:09:30;;;;;;;10.25;2.35;;;;;;;;;;5054012;28;20118;-79
2022/10/06 05:11:55;;;;;;;17.45;2.83;;;;;;;;;;5035959;28;20032;-79
2022/10/06 05:14:20;;;;;;;15.40;2.42;;;;;;;;;;5053939;28;20035;-79
2022/10/06 05:16:46;;;;;;;12.25;2.97;;;;;;;;;;5053140;28;20033;-79
2022/10/06 05:19:11;;;;;;;23.85;2.72;;;;;;;;;;5036623;28;20058;-78
2022/10/06 05:21:36;;;;;;;14.45;2.55;;;;;;;;;;5037338;28;20475;-79
2022/10/06 05:24:02;;;;;;;17.50;2.47;;;;;;;;;;5053996;28;20033;-79
2022/10/06 05:26:30;;;;;;;12.23;2.60;;;;;;;;;;5055843;28;20029;-79
2022/10/06 05:28:56;;;;;;;14.88;2.10;;;;;;;;;;5054838;28;20021;-79
2022/10/06 05:31:23;;;;;;;18.13;1.88;;;;;;;;;;5070498;28;20465;-79
2022/10/06 05:33:48;;;;;;;11.27;2.28;;;;;;;;;;5053452;28;20021;-79
2022/10/06 05:36:16;;;;;;;9.32;2.10;;;;;;;;;;5054273;28;20078;-78
2022/10/06 05:38:42;;;;;;;11.32;2.08;;;;;;;;;;5054275;28;20051;-79
2022/10/06 05:41:25;;;;;;;3.95;1.55;;;;;;;;;;5052451;28;20024;-79
2022/10/06 05:43:51;;;;;;;7.53;2.00;;;;;;;;;;5052806;28;20049;-79
2022/10/06 05:46:23;;;;;;;8.45;2.45;;;;;;;;;;5053431;28;20078;-79
2022/10/06 05:48:54;;;;;;;12.00;2.28;;;;;;;;;;5037413;28;20036;-79
2022/10/06 05:51:21;;;;;;;11.32;1.95;;;;;;;;;;5054044;28;20033;-79
2022/10/06 05:53:47;;;;;;;12.82;1.73;;;;;;;;;;5053894;28;20068;-80
2022/10/06 05:56:20;;;;;;;8.65;1.77;;;;;;;;;;5022673;28;20027;-79
2022/10/06 05:58:48;;;;;;;9.15;2.15;;;;;;;;;;5059876;28;20040;-78
2022/10/06 06:01:16;;;;;;;10.95;2.03;;;;;;;;;;5053050;28;20490;-79
2022/10/06 06:03:46;;;;;;;9.93;1.85;;;;;;;;;;5053064;28;20116;-79
2022/10/06 06:06:37;;;;;;;7.30;1.58;;;;;;;;;;5055058;28;20025;-79
2022/10/06 06:09:13;;;;;;;6.47;1.77;;;;;;;;;;5055581;28;20025;-79
2022/10/06 06:11:44;;;;;;;5.35;1.58;;;;;;;;;;5057729;28;20438;-77
2022/10/06 06:14:15;;;;;;;6.95;1.70;;;;;;;;;;5060495;28;20036;-79
2022/10/06 06:16:41;;;;;;;8.18;1.60;;;;;;;;;;5036180;28;20028;-80
2022/10/06 06:19:08;;;;;;;6.13;1.75;;;;;;;;;;5052895;28;20025;-79
2022/10/06 06:21:34;;;;;;;7.03;1.98;;;;;;;;;;5052518;28;20426;-80
2022/10/06 06:23:59;;;;;;;7.93;1.60;;;;;;;;;;5035508;28;20025;-79
2022/10/06 06:26:30;;;;;;;8.88;1.90;;;;;;;;;;5019081;28;20057;-79
2022/10/06 06:29:04;;;;;;;5.68;1.70;;;;;;;;;;5052334;28;20464;-79
2022/10/06 06:31:32;;;;;;;8.48;1.95;;;;;;;;;;5052538;28;20036;-79
2022/10/06 06:33:59;;;;;;;10.93;2.03;;;;;;;;;;5035526;28;20409;-79
2022/10/06 06:36:34;;;;;;;7.60;2.08;;;;;;;;;;5052711;28;20056;-80
2022/10/06 06:39:00;;;;;;;6.50;1.75;;;;;;;;;;5052507;28;20032;-79
2022/10/06 06:41:28;;;;;;;8.43;1.98;;;;;;;;;;5052033;28;20469;-80
2022/10/06 06:43:54;;;;;;;5.55;1.60;;;;;;;;;;5052022;28;20072;-79
2022/10/06 06:46:23;;;;;;;6.70;1.83;;;;;;;;;;5052529;28;20037;-79
2022/10/06 06:48:53;;;;;;;6.57;1.75;;;;;;;;;;5052422;28;20503;-79
2022/10/06 06:51:21;;;;;;;6.03;2.00;;;;;;;;;;5052824;28;20041;-79
2022/10/06 06:53:47;;;;;;;6.65;1.90;;;;;;;;;;5064330;28;20029;-79
2022/10/06 06:56:13;;;;;;;9.75;1.67;;;;;;;;;;5081225;28;20345;-79
2022/10/06 06:58:40;;;;;;;8.20;1.90;;;;;;;;;;5056510;28;20033;-79
2022/10/06 07:01:12;;;;;;;8.35;1.80;;;;;;;;;;5059158;28;20108;-79
2022/10/06 07:03:42;;;;;;;10.32;2.08;;;;;;;;;;5057028;28;20021;-79
2022/10/06 07:06:10;;;;;;;10.05;2.55;;;;;;;;;;5056730;28;20036;-79
2022/10/06 07:08:37;;;;;;;7.70;1.80;;;;;;;;;;5056952;28;20451;-79
2022/10/06 07:11:23;;;;;;;11.32;2.10;;;;;;;;;;5057232;28;20033;-79
2022/10/06 07:13:54;;;;;;;5.95;1.73;;;;;;;;;;5057321;28;20082;-79
2022/10/06 07:27:23;;;;;;;10.30;2.10;;;;;;;;;;5057943;28;20108;-79
2022/10/06 07:29:53;;;;;;;5.82;1.60;;;;;;;;;;5056589;28;20451;-79
2022/10/06 07:32:20;;;;;;;5.03;1.83;;;;;;;;;;5059900;28;20395;-79
2022/10/06 07:34:46;;;;;;;8.48;2.10;;;;;;;;;;5055975;28;20024;-79
2022/10/06 07:37:11;;;;;;;7.13;1.95;;;;;;;;;;5055399;28;20037;-79
2022/10/06 07:39:37;;;;;;;5.72;1.90;;;;;;;;;;5056951;28;20094;-79
2022/10/06 07:42:06;;;;;;;9.65;2.30;;;;;;;;;;5055227;28;20029;-79
2022/10/06 07:44:31;;;;;;;6.82;2.03;;;;;;;;;;5038232;28;20457;-79
2022/10/06 07:46:57;;;;;;;5.82;1.83;;;;;;;;;;5056519;28;20025;-79
2022/10/06 07:49:22;;;;;;;7.35;2.17;;;;;;;;;;5056856;28;20375;-79
2022/10/06 07:51:47;;;;;;;7.18;1.92;;;;;;;;;;5055046;28;20037;-78
2022/10/06 07:54:13;;;;;;;8.43;1.83;;;;;;;;;;5056176;28;20119;-79
2022/10/06 07:56:38;;;;;;;8.15;2.22;;;;;;;;;;5056356;28;20025;-79
2022/10/06 07:59:03;;;;;;;8.13;2.08;;;;;;;;;;5056337;28;20383;-79
2022/10/06 08:01:29;;;;;;;7.55;1.80;;;;;;;;;;5054837;28;20033;-79
2022/10/06 08:03:55;;;;;;;6.13;1.88;;;;;;;;;;5055559;28;20029;-79
2022/10/06 08:06:22;;;;;;;7.28;2.00;;;;;;;;;;5055818;28;20036;-79
2022/10/06 08:08:48;;;;;;;6.10;2.00;;;;;;;;;;5055032;28;20043;-79
2022/10/06 08:11:14;;;;;;;9.00;2.20;;;;;;;;;;5054322;28;20120;-79
2022/10/06 08:13:42;;;;;;;7.95;2.00;;;;;;;;;;5054801;28;20116;-79
2022/10/06 08:16:16;;;;;;;6.22;1.98;;;;;;;;;;5054454;28;20021;-79
2022/10/06 08:18:42;;;;;;;7.57;1.85;;;;;;;;;;5054452;28;20033;-79
2022/10/06 08:21:19;;;;;;;8.30;1.90;;;;;;;;;;5037804;28;20035;-79
2022/10/06 08:23:46;;;;;;;5.55;2.00;;;;;;;;;;5054495;28;20020;-79
2022/10/06 08:26:13;;;;;;;4.88;1.80;;;;;;;;;;5037612;28;20491;-79
2022/10/06 08:28:39;;;;;;;7.00;2.20;;;;;;;;;;5054453;28;20108;-79
2022/10/06 08:31:07;;;;;;;5.47;1.85;;;;;;;;;;5037870;28;20124;-79
2022/10/06 08:33:34;;;;;;;7.40;1.73;;;;;;;;;;5037762;28;20383;-79
2022/10/06 08:36:11;;;;;;;7.65;2.03;;;;;;;;;;5037722;28;20116;-78
2022/10/06 08:38:37;;;;;;;7.88;1.83;;;;;;;;;;5054225;28;20036;-79
2022/10/06 08:41:25;;;;;;;6.35;2.00;;;;;;;;;;5055158;28;20029;-78
2022/10/06 08:44:17;;;;;;;5.53;1.58;;;;;;;;;;5055248;28;20114;-78
2022/10/06 08:47:00;;;;;;;4.38;1.50;;;;;;;;;;5055153;28;20107;-78
2022/10/06 08:49:39;;;;;;;4.70;1.70;;;;;;;;;;5053859;28;20021;-78
2022/10/06 08:52:35;;;;;;;9.40;2.00;;;;;;;;;;5054139;28;20041;-79
2022/10/06 08:55:19;;;;;;;6.15;1.77;;;;;;;;;;5055048;28;20052;-78
2022/10/06 08:57:52;;;;;;;;;;;;;;;;;;5055669;28;20036;-78
2022/10/06 09:00:18;;;;;;;4.72;1.73;;;;;;;;;;5054010;28;19909;-78
2022/10/06 09:02:45;;;;;;;3.97;1.50;;;;;;;;;;5037003;28;20037;-78
2022/10/06 09:05:18;;;;;;;6.20;2.10;;;;;;;;;;5054726;28;20021;-79
2022/10/06 09:07:58;;;;;;;6.03;1.73;;;;;;;;;;5053898;28;20032;-78
2022/10/06 09:10:29;;;;;;;9.32;2.25;;;;;;;;;;5054742;28;20025;-78
2022/10/06 09:13:05;;;;;;;12.85;2.03;;;;;;;;;;5054652;28;20160;-78
2022/10/06 09:15:32;;;;;;;8.35;1.98;;;;;;;;;;5052494;28;20017;-78
2022/10/06 09:18:07;;;;;;;8.98;1.92;;;;;;;;;;5054595;28;20082;-78
2022/10/06 09:20:37;;;;;;;7.88;1.90;;;;;;;;;;5053473;28;20040;-78
2022/10/06 09:23:05;;;;;;;6.05;1.60;;;;;;;;;;5053304;28;20031;-78
2022/10/06 09:25:31;;;;;;;6.75;1.90;;;;;;;;;;5053104;28;20096;-78
2022/10/06 09:28:00;;;;;;;7.55;1.85;;;;;;;;;;5053477;28;20041;-78
2022/10/06 09:30:26;;;;;;;6.97;1.90;;;;;;;;;;5053200;28;20099;-78
2022/10/06 09:32:57;;;;;;;7.05;1.83;;;;;;;;;;5054842;28;20471;-78
2022/10/06 09:35:24;;;;;;;6.13;1.55;;;;;;;;;;5053340;28;20017;-78
2022/10/06 09:38:04;;;;;;;6.72;2.08;;;;;;;;;;5053264;28;20048;-78
2022/10/06 09:40:48;;;;;;;5.10;1.58;;;;;;;;;;5053989;28;20078;-78
2022/10/06 09:43:29;;;;;;;6.57;1.67;;;;;;;;;;5053306;28;20025;-78
2022/10/06 09:46:16;;;;;;;7.43;1.83;;;;;;;;;;5054138;28;20285;-78
2022/10/06 09:48:42;;;;;;;5.90;1.73;;;;;;;;;;5052736;28;20372;-78
2022/10/06 09:51:11;;;;;;;6.65;1.90;;;;;;;;;;5054332;28;20037;-78
2022/10/06 09:53:38;;;;;;;7.22;2.10;;;;;;;;;;5052758;28;20025;-78
2022/10/06 09:56:11;;;;;;;5.55;1.60;;;;;;;;;;5053039;28;20029;-78
2022/10/06 09:58:38;;;;;;;6.13;1.87;;;;;;;;;;5052735;28;20024;-78
2022/10/06 10:01:11;;;;;;;4.25;1.52;;;;;;;;;;5054064;28;20139;-78
2022/10/06 10:03:59;;;;;;;5.83;1.60;;;;;;;;;;5052619;28;20025;-78
2022/10/06 10:06:33;;;;;;;7.88;1.83;;;;;;;;;;5052411;28;20025;-78
2022/10/06 10:09:20;;;;;;;7.03;1.83;;;;;;;;;;5052556;28;20116;-78
2022/10/06 10:12:26;;;;;;;6.30;2.35;;;;;;;;;;5053150;28;20035;-78
2022/10/06 10:15:10;;;;;;;8.43;1.80;;;;;;;;;;5053200;28;20037;-78
2022/10/06 10:17:41;;;;;;;6.95;1.52;;;;;;;;;;5053659;28;20025;-78
2022/10/06 10:20:24;;;;;;;5.97;1.40;;;;;;;;;;5052712;28;20060;-78
2022/10/06 10:22:51;;;;;;;6.10;1.55;;;;;;;;;;5053813;28;20016;-78
2022/10/06 10:25:23;;;;;;;7.97;1.98;;;;;;;;;;5053688;28;20071;-79
2022/10/06 10:28:02;;;;;;;8.30;2.40;;;;;;;;;;5053886;28;20024;-78
2022/10/06 10:30:28;;;;;;;6.28;1.75;;;;;;;;;;5052561;28;20079;-78
2022/10/06 10:33:03;;;;;;;6.22;1.65;;;;;;;;;;5052263;28;20033;-78
2022/10/06 10:35:33;;;;;;;5.20;1.85;;;;;;;;;;5053435;28;20388;-79
2022/10/06 10:38:02;;;;;;;5.90;1.55;;;;;;;;;;5068796;28;20025;-79
2022/10/06 10:40:50;;;;;;;3.15;1.30;;;;;;;;;;5053256;28;20024;-78
2022/10/06 10:43:30;;;;;;;8.65;1.42;;;;;;;;;;5051990;28;20383;-78
2022/10/06 10:46:21;;;;;;;7.68;1.67;;;;;;;;;;5052203;28;20431;-79
2022/10/06 10:49:21;;;;;;;7.25;1.70;;;;;;;;;;5053392;28;20029;-78
2022/10/06 10:51:50;;;;;;;7.72;1.45;;;;;;;;;;5051330;28;20041;-78
2022/10/06 10:54:36;;;;;;;9.32;1.77;;;;;;;;;;5053066;28;20028;-78
2022/10/06 10:57:02;;;;;;;5.72;1.48;;;;;;;;;;5035263;28;20025;-78
2022/10/06 10:59:42;;;;;;;4.82;1.27;;;;;;;;;;5051897;28;20028;-78
2022/10/06 11:02:15;;;;;;;5.78;1.42;;;;;;;;;;5051943;28;20028;-78
2022/10/06 11:04:43;;;;;;;8.82;1.77;;;;;;;;;;5051787;28;20391;-78
2022/10/06 11:07:29;;;;;;;10.43;1.58;;;;;;;;;;5053015;28;20017;-78
2022/10/06 11:10:12;;;;;;;7.22;1.50;;;;;;;;;;5051844;28;20083;-78
2022/10/06 11:12:43;;;;;;;7.40;1.40;;;;;;;;;;5034986;28;20021;-79
2022/10/06 11:15:19;;;;;;;11.30;1.65;;;;;;;;;;5051928;28;20392;-79
2022/10/06 11:17:49;;;;;;;3.72;1.20;;;;;;;;;;5051529;28;20119;-78
2022/10/06 11:20:39;;;;;;;9.00;1.40;;;;;;;;;;5051784;28;20040;-78
2022/10/06 11:23:16;;;;;;;4.35;1.30;;;;;;;;;;5052765;28;20029;-78
2022/10/06 11:26:26;;;;;;;4.32;1.60;;;;;;;;;;5052870;28;20476;-78
2022/10/06 11:29:00;;;;;;;7.75;1.52;;;;;;;;;;5052782;28;20029;-78
2022/10/06 11:31:34;;;;;;;6.53;1.58;;;;;;;;;;5051654;28;20031;-77
2022/10/06 11:34:02;;;;;;;8.05;1.25;;;;;;;;;;5034819;28;20521;-78
2022/10/06 11:36:33;;;;;;;4.07;1.25;;;;;;;;;;5053010;28;20119;-77
2022/10/06 11:39:20;;;;;;;5.15;1.52;;;;;;;;;;5053730;28;20028;-77
2022/10/06 11:42:09;;;;;;;4.65;1.25;;;;;;;;;;5055054;28;20487;-78
2022/10/06 11:44:41;;;;;;;4.22;1.50;;;;;;;;;;5056312;28;20120;-78
2022/10/06 11:47:09;;;;;;;3.08;1.05;;;;;;;;;;5055136;28;20028;-77
2022/10/06 11:49:51;;;;;;;4.65;1.30;;;;;;;;;;5038233;28;20079;-78
2022/10/06 11:52:16;;;;;;;4.10;1.13;;;;;;;;;;5054990;28;20036;-78
2022/10/06 11:54:42;;;;;;;3.78;1.13;;;;;;;;;;5056461;28;20024;-78
2022/10/06 11:57:22;;;;;;;3.15;1.33;;;;;;;;;;5055083;28;20036;-78
2022/10/06 11:59:51;;;;;;;4.97;1.20;;;;;;;;;;5056376;28;20116;-78
2022/10/06 12:02:29;;;;;;;3.65;1.30;;;;;;;;;;5056260;28;20043;-77
2022/10/06 12:05:13;;;;;;;4.18;1.38;;;;;;;;;;5056072;28;20124;-78
2022/10/06 12:07:54;;;;;;;;;;;;;;;;;;5056376;28;20049;-78
2022/10/06 12:10:28;;;;;;;2.50;0.93;;;;;;;;;;5056190;28;19916;-78
2022/10/06 12:13:14;;;;;;;4.32;1.23;;;;;;;;;;5055909;28;20025;-78
2022/10/06 12:16:14;;;;;;;4.50;1.42;;;;;;;;;;5055254;28;20379;-78
2022/10/06 12:18:57;;;;;;;5.28;1.40;;;;;;;;;;5055209;28;20024;-79
2022/10/06 12:21:35;;;;;;;3.20;1.20;;;;;;;;;;5038384;28;20387;-78
2022/10/06 12:24:35;;;;;;;6.57;1.30;;;;;;;;;;5056143;28;20029;-78
2022/10/06 12:27:24;;;;;;;4.00;1.48;;;;;;;;;;5056081;28;20083;-78
2022/10/06 12:30:10;;;;;;;5.47;1.77;;;;;;;;;;5054483;28;20029;-78
2022/10/06 12:32:40;;;;;;;4.95;1.15;;;;;;;;;;5054542;28;20025;-78
2022/10/06 12:35:06;;;;;;;11.73;1.73;;;;;;;;;;5055838;28;20025;-78
2022/10/06 12:37:36;;;;;;;8.57;1.52;;;;;;;;;;5055842;28;20036;-78
2022/10/06 12:40:36;;;;;;;4.75;1.40;;;;;;;;;;5037521;28;20024;-77
2022/10/06 12:43:13;;;;;;;6.40;1.05;;;;;;;;;;5055880;28;20025;-77
2022/10/06 12:45:42;;;;;;;3.75;1.40;;;;;;;;;;5055373;28;20045;-77
2022/10/06 12:48:17;;;;;;;8.00;1.35;;;;;;;;;;5054458;28;20025;-78
2022/10/06 12:50:43;;;;;;;8.23;1.67;;;;;;;;;;5053950;28;20391;-78
2022/10/06 12:53:18;;;;;;;8.25;1.45;;;;;;;;;;5054037;28;20120;-77
2022/10/06 12:55:50;;;;;;;4.40;1.42;;;;;;;;;;5055456;28;20420;-78
2022/10/06 12:58:17;;;;;;;5.25;1.30;;;;;;;;;;5054576;28;20033;-77
2022/10/06 13:00:43;;;;;;;3.80;1.48;;;;;;;;;;5054047;28;20025;-77
2022/10/06 13:03:23;;;;;;;5.10;1.48;;;;;;;;;;5037983;28;20123;-78
2022/10/06 13:05:55;;;;;;;5.90;1.60;;;;;;;;;;5054645;28;20032;-77
2022/10/06 13:08:40;;;;;;;4.43;1.90;;;;;;;;;;5055078;28;20487;-78
2022/10/06 13:11:25;;;;;;;4.70;1.67;;;;;;;;;;5054734;28;20082;-77
2022/10/06 13:13:51;;;;;;;4.97;1.75;;;;;;;;;;5037029;28;20021;-77
2022/10/06 13:16:20;;;;;;;8.40;1.80;;;;;;;;;;5053822;28;20135;-78
2022/10/06 13:18:47;;;;;;;5.20;1.90;;;;;;;;;;5054296;28;20025;-77
2022/10/06 13:21:14;;;;;;;7.43;1.95;;;;;;;;;;5053857;28;20119;-77
2022/10/06 13:23:40;;;;;;;4.90;1.90;;;;;;;;;;5054049;28;20361;-78
2022/10/06 13:26:14;;;;;;;5.53;2.20;;;;;;;;;;5053189;28;20036;-78
2022/10/06 13:28:43;;;;;;;5.30;1.92;;;;;;;;;;5054121;28;20031;-77
2022/10/06 13:31:19;;;;;;;5.63;2.25;;;;;;;;;;5055201;28;20025;-77
2022/10/06 13:33:56;;;;;;;5.15;2.03;;;;;;;;;;5054933;28;20554;-77
2022/10/06 13:36:22;;;;;;;6.78;1.77;;;;;;;;;;5055296;28;20503;-77
2022/10/06 13:38:48;;;;;;;5.05;2.08;;;;;;;;;;5054090;28;20439;-77
2022/10/06 13:41:16;;;;;;;4.07;1.80;;;;;;;;;;5053822;28;20032;-77
2022/10/06 13:43:50;;;;;;;5.88;1.88;;;;;;;;;;5054934;28;20045;-77
2022/10/06 13:46:21;;;;;;;4.32;1.80;;;;;;;;;;5056077;28;20029;-77
2022/10/06 13:49:02;;;;;;;5.85;1.90;;;;;;;;;;5053533;28;20077;-78
2022/10/06 13:51:31;;;;;;;3.30;1.55;;;;;;;;;;5053092;28;20048;-78
2022/10/06 13:53:58;;;;;;;4.70;1.77;;;;;;;;;;5053286;28;20029;-77
2022/10/06 13:56:33;;;;;;;5.93;1.80;;;;;;;;;;5052868;28;20383;-78
2022/10/06 13:59:29;;;;;;;7.20;2.03;;;;;;;;;;5053066;28;20383;-77
2022/10/06 14:01:55;;;;;;;8.90;1.67;;;;;;;;;;5052893;28;20025;-77
2022/10/06 14:04:21;;;;;;;8.27;1.70;;;;;;;;;;5052670;28;20060;-77
2022/10/06 14:06:50;;;;;;;4.47;1.55;;;;;;;;;;5052709;28;20028;-78
2022/10/06 14:09:20;;;;;;;3.65;1.67;;;;;;;;;;5052622;28;20087;-77
2022/10/06 14:11:45;;;;;;;6.65;1.33;;;;;;;;;;5052450;28;20033;-78
2022/10/06 14:14:16;;;;;;;3.65;1.38;;;;;;;;;;5052425;28;20083;-77
2022/10/06 14:16:51;;;;;;;6.90;1.80;;;;;;;;;;5052602;28;20024;-78
2022/10/06 14:19:29;;;;;;;6.00;1.70;;;;;;;;;;5052401;28;20024;-77
2022/10/06 14:21:54;;;;;;;7.53;1.45;;;;;;;;;;5053967;28;20037;-77
2022/10/06 14:24:22;;;;;;;6.68;1.52;;;;;;;;;;5052524;28;20033;-78
2022/10/06 14:26:48;;;;;;;4.60;1.67;;;;;;;;;;5052956;28;20029;-77
2022/10/06 14:29:14;;;;;;;6.05;2.10;;;;;;;;;;5037161;28;20021;-77
2022/10/06 14:31:40;;;;;;;5.75;1.25;;;;;;;;;;5052481;28;20085;-77
2022/10/06 14:34:13;;;;;;;3.72;1.42;;;;;;;;;;5052355;28;20120;-77
2022/10/06 14:36:38;;;;;;;4.05;1.60;;;;;;;;;;5052718;28;20029;-78
2022/10/06 14:39:05;;;;;;;5.80;1.30;;;;;;;;;;5052556;28;20025;-77
2022/10/06 14:41:31;;;;;;;2.58;1.42;;;;;;;;;;5054374;28;20025;-78
2022/10/06 14:44:00;;;;;;;9.75;1.50;;;;;;;;;;5053614;28;20052;-77
2022/10/06 14:46:26;;;;;;;7.18;1.85;;;;;;;;;;5052685;28;20028;-78
2022/10/06 14:48:52;;;;;;;16.85;1.77;;;;;;;;;;5053370;28;20044;-79
2022/10/06 14:51:21;;;;;;;6.45;1.75;;;;;;;;;;5033247;28;20029;-78
2022/10/06 14:53:56;;;;;;;5.35;1.30;;;;;;;;;;5011545;28;20079;-78
2022/10/06 14:56:24;;;;;;;3.60;1.27;;;;;;;;;;4991416;28;20026;-78
2022/10/06 14:58:50;;;;;;;8.07;1.67;;;;;;;;;;5012941;28;20026;-78
2022/10/06 15:01:16;;;;;;;5.28;1.30;;;;;;;;;;4995680;28;20032;-78
2022/10/06 15:03:43;;;;;;;5.22;1.52;;;;;;;;;;5013191;28;20427;-78
2022/10/06 15:08:56;;;;;;;3.42;1.30;;;;;;;;;;5013412;28;20456;-78
2022/10/06 15:11:23;;;;;;;5.43;1.33;;;;;;;;;;5013394;28;20563;-78
2022/10/06 15:13:49;;;;;;;6.78;1.20;;;;;;;;;;4997299;28;20057;-78
2022/10/06 15:16:15;;;;;;;3.83;1.15;;;;;;;;;;5017025;28;20029;-78
2022/10/06 15:18:40;;;;;;;5.65;1.50;;;;;;;;;;5017403;28;20040;-78
2022/10/06 15:21:08;;;;;;;4.18;1.15;;;;;;;;;;4999524;28;20037;-78